sensor_id;sensor_type;location;lat;lon;timestamp;temperature;humidity
5059;DHT22;2548;52.050;11.036;2022-12-29T00:00:18;8.80;99.90
5059;DHT22;2548;52.050;11.036;2022-12-29T00:02:47;8.80;99.90
5059;DHT22;2548;52.050;11.036;2022-12-29T00:05:15;8.80;99.90
5059;DHT22;2548;52.050;11.036;2022-12-29T00:07:42;8.80;99.90
5059;DHT22;2548;52.050;11.036;2022-12-29T00:10:10;8.80;99.90
5059;DHT22;2548;52.050;11.036;2022-12-29T00:12:37;8.80;99.90
5059;DHT22;2548;52.050;11.036;2022-12-29T00:15:22;8.80;99.90
5059;DHT22;2548;52.050;11.036;2022-12-29T00:18:06;8.80;99.90
5059;DHT22;2548;52.050;11.036;2022-12-29T00:20:34;8.80;99.90
5059;DHT22;2548;52.050;11.036;2022-12-29T00:23:20;8.70;99.90
5059;DHT22;2548;52.050;11.036;2022-12-29T00:26:17;8.70;99.90
5059;DHT22;2548;52.050;11.036;2022-12-29T00:29:02;8.70;99.90
5059;DHT22;2548;52.050;11.036;2022-12-29T00:31:48;8.70;99.90
5059;DHT22;2548;52.050;11.036;2022-12-29T00:34:49;8.70;99.90
5059;DHT22;2548;52.050;11.036;2022-12-29T00:37:33;8.80;99.90
5059;DHT22;2548;52.050;11.036;2022-12-29T00:40:15;8.80;99.90
5059;DHT22;2548;52.050;11.036;2022-12-29T00:43:00;8.80;99.90
5059;DHT22;2548;52.050;11.036;2022-12-29T00:45:45;8.90;99.90
5059;DHT22;2548;52.050;11.036;2022-12-29T00:48:12;8.90;99.90
5059;DHT22;2548;52.050;11.036;2022-12-29T00:50:41;8.90;99.90
5059;DHT22;2548;52.050;11.036;2022-12-29T00:53:08;9.00;99.90
5059;DHT22;2548;52.050;11.036;2022-12-29T00:55:36;8.90;99.90
5059;DHT22;2548;52.050;11.036;2022-12-29T00:58:04;8.90;99.90
5059;DHT22;2548;52.050;11.036;2022-12-29T01:00:31;8.90;99.90
5059;DHT22;2548;52.050;11.036;2022-12-29T01:02:59;8.90;99.90
5059;DHT22;2548;52.050;11.036;2022-12-29T01:05:26;9.00;99.90
5059;DHT22;2548;52.050;11.036;2022-12-29T01:07:55;9.00;99.90
5059;DHT22;2548;52.050;11.036;2022-12-29T01:10:24;9.00;99.90
5059;DHT22;2548;52.050;11.036;2022-12-29T01:12:50;9.00;99.90
5059;DHT22;2548;52.050;11.036;2022-12-29T01:15:18;9.10;99.90
5059;DHT22;2548;52.050;11.036;2022-12-29T01:17:45;9.10;99.90
5059;DHT22;2548;52.050;11.036;2022-12-29T01:20:13;9.10;99.90
5059;DHT22;2548;52.050;11.036;2022-12-29T01:22:40;9.20;99.90
5059;DHT22;2548;52.050;11.036;2022-12-29T01:25:10;9.30;99.90
5059;DHT22;2548;52.050;11.036;2022-12-29T01:27:38;9.30;99.90
5059;DHT22;2548;52.050;11.036;2022-12-29T01:30:06;9.30;99.90
5059;DHT22;2548;52.050;11.036;2022-12-29T01:32:34;9.30;99.90
5059;DHT22;2548;52.050;11.036;2022-12-29T01:35:02;9.30;99.90
5059;DHT22;2548;52.050;11.036;2022-12-29T01:37:29;9.30;99.90
5059;DHT22;2548;52.050;11.036;2022-12-29T01:39:57;9.30;99.90
5059;DHT22;2548;52.050;11.036;2022-12-29T01:42:26;9.30;99.90
5059;DHT22;2548;52.050;11.036;2022-12-29T01:44:54;9.30;99.90
5059;DHT22;2548;52.050;11.036;2022-12-29T01:47:27;9.30;99.90
5059;DHT22;2548;52.050;11.036;2022-12-29T01:50:00;9.20;99.90
5059;DHT22;2548;52.050;11.036;2022-12-29T01:52:31;9.20;99.90
5059;DHT22;2548;52.050;11.036;2022-12-29T01:55:00;9.20;99.90
5059;DHT22;2548;52.050;11.036;2022-12-29T01:57:33;9.20;99.90
5059;DHT22;2548;52.050;11.036;2022-12-29T02:00:04;9.20;99.90
5059;DHT22;2548;52.050;11.036;2022-12-29T02:02:40;9.20;99.90
5059;DHT22;2548;52.050;11.036;2022-12-29T02:05:14;9.20;99.90
5059;DHT22;2548;52.050;11.036;2022-12-29T02:07:45;9.10;99.90
5059;DHT22;2548;52.050;11.036;2022-12-29T02:10:13;9.10;99.90
5059;DHT22;2548;52.050;11.036;2022-12-29T02:12:42;9.10;99.90
5059;DHT22;2548;52.050;11.036;2022-12-29T02:15:10;9.10;99.90
5059;DHT22;2548;52.050;11.036;2022-12-29T02:17:49;9.10;99.90
5059;DHT22;2548;52.050;11.036;2022-12-29T02:23:35;9.00;99.90
5059;DHT22;2548;52.050;11.036;2022-12-29T02:26:26;9.00;99.90
5059;DHT22;2548;52.050;11.036;2022-12-29T02:29:21;9.00;99.90
5059;DHT22;2548;52.050;11.036;2022-12-29T02:31:57;9.00;99.90
5059;DHT22;2548;52.050;11.036;2022-12-29T02:34:31;9.00;99.90
5059;DHT22;2548;52.050;11.036;2022-12-29T02:37:06;9.00;99.90
5059;DHT22;2548;52.050;11.036;2022-12-29T02:39:39;9.00;99.90
5059;DHT22;2548;52.050;11.036;2022-12-29T02:42:13;9.10;99.90
5059;DHT22;2548;52.050;11.036;2022-12-29T02:44:54;9.10;99.90
5059;DHT22;2548;52.050;11.036;2022-12-29T02:47:29;9.20;99.90
5059;DHT22;2548;52.050;11.036;2022-12-29T02:50:03;9.20;99.90
5059;DHT22;2548;52.050;11.036;2022-12-29T02:52:36;9.30;99.90
5059;DHT22;2548;52.050;11.036;2022-12-29T02:55:05;9.30;99.90
5059;DHT22;2548;52.050;11.036;2022-12-29T02:57:34;9.30;99.90
5059;DHT22;2548;52.050;11.036;2022-12-29T03:00:05;9.20;99.90
5059;DHT22;2548;52.050;11.036;2022-12-29T03:06:03;9.30;99.90
5059;DHT22;2548;52.050;11.036;2022-12-29T03:08:42;9.30;99.90
5059;DHT22;2548;52.050;11.036;2022-12-29T03:11:14;9.40;99.90
5059;DHT22;2548;52.050;11.036;2022-12-29T03:13:59;9.40;99.90
5059;DHT22;2548;52.050;11.036;2022-12-29T03:16:49;9.40;99.90
5059;DHT22;2548;52.050;11.036;2022-12-29T03:19:24;9.50;99.90
5059;DHT22;2548;52.050;11.036;2022-12-29T03:21:56;9.50;99.90
5059;DHT22;2548;52.050;11.036;2022-12-29T03:24:49;9.50;99.90
5059;DHT22;2548;52.050;11.036;2022-12-29T03:27:22;9.50;99.90
5059;DHT22;2548;52.050;11.036;2022-12-29T03:29:54;9.50;99.90
5059;DHT22;2548;52.050;11.036;2022-12-29T03:32:27;9.50;99.90
5059;DHT22;2548;52.050;11.036;2022-12-29T03:34:58;9.60;99.90
5059;DHT22;2548;52.050;11.036;2022-12-29T03:37:29;9.60;99.90
5059;DHT22;2548;52.050;11.036;2022-12-29T03:39:59;9.50;99.90
5059;DHT22;2548;52.050;11.036;2022-12-29T03:42:29;9.50;99.90
5059;DHT22;2548;52.050;11.036;2022-12-29T03:44:58;9.50;99.90
5059;DHT22;2548;52.050;11.036;2022-12-29T03:47:26;9.60;99.90
5059;DHT22;2548;52.050;11.036;2022-12-29T03:49:54;9.60;99.90
5059;DHT22;2548;52.050;11.036;2022-12-29T03:52:23;9.60;99.90
5059;DHT22;2548;52.050;11.036;2022-12-29T03:54:52;9.70;99.90
5059;DHT22;2548;52.050;11.036;2022-12-29T03:57:20;9.70;99.90
5059;DHT22;2548;52.050;11.036;2022-12-29T03:59:55;9.80;99.90
5059;DHT22;2548;52.050;11.036;2022-12-29T04:02:22;9.80;99.90
5059;DHT22;2548;52.050;11.036;2022-12-29T04:04:50;9.80;99.90
5059;DHT22;2548;52.050;11.036;2022-12-29T04:07:17;9.80;99.90
5059;DHT22;2548;52.050;11.036;2022-12-29T04:09:46;9.90;99.90
5059;DHT22;2548;52.050;11.036;2022-12-29T04:12:20;9.90;99.90
5059;DHT22;2548;52.050;11.036;2022-12-29T04:14:48;9.90;99.90
5059;DHT22;2548;52.050;11.036;2022-12-29T04:17:15;9.90;99.90
5059;DHT22;2548;52.050;11.036;2022-12-29T04:19:45;9.90;99.90
5059;DHT22;2548;52.050;11.036;2022-12-29T04:22:13;9.90;99.90
5059;DHT22;2548;52.050;11.036;2022-12-29T04:24:40;9.90;99.90
5059;DHT22;2548;52.050;11.036;2022-12-29T04:27:11;9.80;99.90
5059;DHT22;2548;52.050;11.036;2022-12-29T04:30:17;9.80;99.90
5059;DHT22;2548;52.050;11.036;2022-12-29T04:32:59;9.80;99.90
5059;DHT22;2548;52.050;11.036;2022-12-29T04:35:28;9.80;99.90
5059;DHT22;2548;52.050;11.036;2022-12-29T04:37:55;9.70;99.90
5059;DHT22;2548;52.050;11.036;2022-12-29T04:40:23;9.70;99.90
5059;DHT22;2548;52.050;11.036;2022-12-29T04:42:52;9.60;99.90
5059;DHT22;2548;52.050;11.036;2022-12-29T04:45:21;9.60;99.90
5059;DHT22;2548;52.050;11.036;2022-12-29T04:47:57;9.70;99.90
5059;DHT22;2548;52.050;11.036;2022-12-29T04:50:37;9.70;99.90
5059;DHT22;2548;52.050;11.036;2022-12-29T04:53:14;9.70;99.90
5059;DHT22;2548;52.050;11.036;2022-12-29T04:55:43;9.70;99.90
5059;DHT22;2548;52.050;11.036;2022-12-29T04:58:13;9.80;99.90
5059;DHT22;2548;52.050;11.036;2022-12-29T05:00:40;9.80;99.90
5059;DHT22;2548;52.050;11.036;2022-12-29T05:03:08;9.80;99.90
5059;DHT22;2548;52.050;11.036;2022-12-29T05:05:38;9.80;99.90
5059;DHT22;2548;52.050;11.036;2022-12-29T05:08:06;9.80;99.90
5059;DHT22;2548;52.050;11.036;2022-12-29T05:10:34;9.80;99.90
5059;DHT22;2548;52.050;11.036;2022-12-29T05:13:07;9.80;99.90
5059;DHT22;2548;52.050;11.036;2022-12-29T05:15:36;9.80;99.90
5059;DHT22;2548;52.050;11.036;2022-12-29T05:18:04;9.90;99.90
5059;DHT22;2548;52.050;11.036;2022-12-29T05:20:31;9.80;99.90
5059;DHT22;2548;52.050;11.036;2022-12-29T05:22:59;9.80;99.90
5059;DHT22;2548;52.050;11.036;2022-12-29T05:25:27;9.80;99.90
5059;DHT22;2548;52.050;11.036;2022-12-29T05:28:05;9.90;99.90
5059;DHT22;2548;52.050;11.036;2022-12-29T05:30:42;10.00;99.90
5059;DHT22;2548;52.050;11.036;2022-12-29T05:33:09;10.00;99.90
5059;DHT22;2548;52.050;11.036;2022-12-29T05:35:39;10.00;99.90
5059;DHT22;2548;52.050;11.036;2022-12-29T05:38:07;10.00;99.90
5059;DHT22;2548;52.050;11.036;2022-12-29T05:40:34;10.00;99.90
5059;DHT22;2548;52.050;11.036;2022-12-29T05:43:06;10.00;99.90
5059;DHT22;2548;52.050;11.036;2022-12-29T05:45:39;10.00;99.90
5059;DHT22;2548;52.050;11.036;2022-12-29T05:48:27;10.00;99.90
5059;DHT22;2548;52.050;11.036;2022-12-29T05:51:16;9.90;99.90
5059;DHT22;2548;52.050;11.036;2022-12-29T05:53:48;9.80;99.90
5059;DHT22;2548;52.050;11.036;2022-12-29T05:56:17;9.70;99.90
5059;DHT22;2548;52.050;11.036;2022-12-29T05:58:50;9.60;99.90
5059;DHT22;2548;52.050;11.036;2022-12-29T06:01:17;9.50;99.90
5059;DHT22;2548;52.050;11.036;2022-12-29T06:03:46;9.60;99.90
5059;DHT22;2548;52.050;11.036;2022-12-29T06:06:14;9.60;99.90
5059;DHT22;2548;52.050;11.036;2022-12-29T06:08:42;9.60;99.90
5059;DHT22;2548;52.050;11.036;2022-12-29T06:11:10;9.70;99.90
5059;DHT22;2548;52.050;11.036;2022-12-29T06:13:41;9.70;99.90
5059;DHT22;2548;52.050;11.036;2022-12-29T06:16:09;9.60;99.90
5059;DHT22;2548;52.050;11.036;2022-12-29T06:18:37;9.60;99.90
5059;DHT22;2548;52.050;11.036;2022-12-29T06:21:06;9.60;99.90
5059;DHT22;2548;52.050;11.036;2022-12-29T06:23:35;9.60;99.90
5059;DHT22;2548;52.050;11.036;2022-12-29T06:26:04;9.50;99.90
5059;DHT22;2548;52.050;11.036;2022-12-29T06:28:32;9.50;99.90
5059;DHT22;2548;52.050;11.036;2022-12-29T06:31:00;9.50;99.90
5059;DHT22;2548;52.050;11.036;2022-12-29T06:33:28;9.50;99.90
5059;DHT22;2548;52.050;11.036;2022-12-29T06:35:57;9.50;99.90
5059;DHT22;2548;52.050;11.036;2022-12-29T06:38:25;9.40;99.90
5059;DHT22;2548;52.050;11.036;2022-12-29T06:40:53;9.40;99.90
5059;DHT22;2548;52.050;11.036;2022-12-29T06:43:40;9.40;99.90
5059;DHT22;2548;52.050;11.036;2022-12-29T06:46:15;9.50;99.90
5059;DHT22;2548;52.050;11.036;2022-12-29T06:48:42;9.50;99.90
5059;DHT22;2548;52.050;11.036;2022-12-29T06:51:10;9.60;99.90
5059;DHT22;2548;52.050;11.036;2022-12-29T06:53:39;9.60;99.90
5059;DHT22;2548;52.050;11.036;2022-12-29T06:56:06;9.60;99.90
5059;DHT22;2548;52.050;11.036;2022-12-29T06:58:34;9.70;99.90
5059;DHT22;2548;52.050;11.036;2022-12-29T07:01:01;9.70;99.90
5059;DHT22;2548;52.050;11.036;2022-12-29T07:03:29;9.70;99.90
5059;DHT22;2548;52.050;11.036;2022-12-29T07:05:56;9.80;99.90
5059;DHT22;2548;52.050;11.036;2022-12-29T07:08:24;9.80;99.90
5059;DHT22;2548;52.050;11.036;2022-12-29T07:10:53;9.80;99.90
5059;DHT22;2548;52.050;11.036;2022-12-29T07:13:20;9.80;99.90
5059;DHT22;2548;52.050;11.036;2022-12-29T07:15:48;9.90;99.90
5059;DHT22;2548;52.050;11.036;2022-12-29T07:18:15;10.00;99.90
5059;DHT22;2548;52.050;11.036;2022-12-29T07:20:43;10.00;99.90
5059;DHT22;2548;52.050;11.036;2022-12-29T07:23:11;10.10;99.90
5059;DHT22;2548;52.050;11.036;2022-12-29T07:25:38;10.20;99.90
5059;DHT22;2548;52.050;11.036;2022-12-29T07:28:08;10.10;99.90
5059;DHT22;2548;52.050;11.036;2022-12-29T07:30:36;10.10;99.90
5059;DHT22;2548;52.050;11.036;2022-12-29T07:33:04;10.10;99.90
5059;DHT22;2548;52.050;11.036;2022-12-29T07:35:33;10.10;99.90
5059;DHT22;2548;52.050;11.036;2022-12-29T07:38:00;10.10;99.90
5059;DHT22;2548;52.050;11.036;2022-12-29T07:40:28;10.20;99.90
5059;DHT22;2548;52.050;11.036;2022-12-29T07:42:55;10.30;99.90
5059;DHT22;2548;52.050;11.036;2022-12-29T07:45:33;10.40;99.90
5059;DHT22;2548;52.050;11.036;2022-12-29T07:48:08;10.50;99.90
5059;DHT22;2548;52.050;11.036;2022-12-29T07:50:36;10.60;99.90
5059;DHT22;2548;52.050;11.036;2022-12-29T07:53:03;10.70;99.90
5059;DHT22;2548;52.050;11.036;2022-12-29T07:55:31;10.80;99.90
5059;DHT22;2548;52.050;11.036;2022-12-29T07:57:58;10.80;99.90
5059;DHT22;2548;52.050;11.036;2022-12-29T08:00:26;10.90;99.90
5059;DHT22;2548;52.050;11.036;2022-12-29T08:02:55;11.00;99.90
5059;DHT22;2548;52.050;11.036;2022-12-29T08:05:22;11.00;99.90
5059;DHT22;2548;52.050;11.036;2022-12-29T08:07:49;11.10;99.90
5059;DHT22;2548;52.050;11.036;2022-12-29T08:10:17;11.20;99.90
5059;DHT22;2548;52.050;11.036;2022-12-29T08:12:44;11.20;99.90
5059;DHT22;2548;52.050;11.036;2022-12-29T08:15:12;11.20;99.90
5059;DHT22;2548;52.050;11.036;2022-12-29T08:17:39;11.30;99.90
5059;DHT22;2548;52.050;11.036;2022-12-29T08:20:09;11.30;99.90
5059;DHT22;2548;52.050;11.036;2022-12-29T08:22:37;11.40;99.90
5059;DHT22;2548;52.050;11.036;2022-12-29T08:25:04;11.40;99.90
5059;DHT22;2548;52.050;11.036;2022-12-29T08:27:32;11.40;99.90
5059;DHT22;2548;52.050;11.036;2022-12-29T08:29:59;11.40;99.90
5059;DHT22;2548;52.050;11.036;2022-12-29T08:32:27;11.40;99.90
5059;DHT22;2548;52.050;11.036;2022-12-29T08:34:55;11.40;99.90
5059;DHT22;2548;52.050;11.036;2022-12-29T08:37:24;11.40;99.90
5059;DHT22;2548;52.050;11.036;2022-12-29T08:39:51;11.40;99.90
5059;DHT22;2548;52.050;11.036;2022-12-29T08:42:19;11.50;99.90
5059;DHT22;2548;52.050;11.036;2022-12-29T08:44:46;11.50;99.90
5059;DHT22;2548;52.050;11.036;2022-12-29T08:47:13;11.50;99.90
5059;DHT22;2548;52.050;11.036;2022-12-29T08:49:41;11.50;99.90
5059;DHT22;2548;52.050;11.036;2022-12-29T08:52:08;11.60;99.90
5059;DHT22;2548;52.050;11.036;2022-12-29T08:54:37;11.60;99.90
5059;DHT22;2548;52.050;11.036;2022-12-29T08:57:05;11.70;99.90
5059;DHT22;2548;52.050;11.036;2022-12-29T08:59:38;11.70;99.90
5059;DHT22;2548;52.050;11.036;2022-12-29T09:02:08;11.70;99.90
5059;DHT22;2548;52.050;11.036;2022-12-29T09:04:37;11.70;99.90
5059;DHT22;2548;52.050;11.036;2022-12-29T09:07:04;11.70;99.90
5059;DHT22;2548;52.050;11.036;2022-12-29T09:09:32;11.60;99.90
5059;DHT22;2548;52.050;11.036;2022-12-29T09:12:01;11.60;99.90
5059;DHT22;2548;52.050;11.036;2022-12-29T09:14:29;11.60;99.90
5059;DHT22;2548;52.050;11.036;2022-12-29T09:16:56;11.60;99.90
5059;DHT22;2548;52.050;11.036;2022-12-29T09:19:41;11.50;99.90
5059;DHT22;2548;52.050;11.036;2022-12-29T09:22:08;11.40;99.90
5059;DHT22;2548;52.050;11.036;2022-12-29T09:24:36;11.40;99.90
5059;DHT22;2548;52.050;11.036;2022-12-29T09:27:05;11.30;99.90
5059;DHT22;2548;52.050;11.036;2022-12-29T09:29:32;11.30;99.90
5059;DHT22;2548;52.050;11.036;2022-12-29T09:32:00;11.30;99.90
5059;DHT22;2548;52.050;11.036;2022-12-29T09:34:28;11.30;99.90
5059;DHT22;2548;52.050;11.036;2022-12-29T09:36:55;11.30;99.90
5059;DHT22;2548;52.050;11.036;2022-12-29T09:39:24;11.30;99.90
5059;DHT22;2548;52.050;11.036;2022-12-29T09:41:58;11.30;99.90
5059;DHT22;2548;52.050;11.036;2022-12-29T09:44:37;11.30;99.90
5059;DHT22;2548;52.050;11.036;2022-12-29T09:47:12;11.40;99.90
5059;DHT22;2548;52.050;11.036;2022-12-29T09:49:43;11.40;99.90
5059;DHT22;2548;52.050;11.036;2022-12-29T09:52:14;11.40;99.90
5059;DHT22;2548;52.050;11.036;2022-12-29T09:54:49;11.40;99.90
5059;DHT22;2548;52.050;11.036;2022-12-29T09:57:21;11.50;99.90
5059;DHT22;2548;52.050;11.036;2022-12-29T09:59:55;11.50;99.90
5059;DHT22;2548;52.050;11.036;2022-12-29T10:02:37;11.50;99.90
5059;DHT22;2548;52.050;11.036;2022-12-29T10:05:18;11.50;99.90
5059;DHT22;2548;52.050;11.036;2022-12-29T10:07:52;11.50;99.90
5059;DHT22;2548;52.050;11.036;2022-12-29T10:10:34;11.40;99.90
5059;DHT22;2548;52.050;11.036;2022-12-29T10:13:16;11.40;99.90
5059;DHT22;2548;52.050;11.036;2022-12-29T10:15:57;11.40;99.90
5059;DHT22;2548;52.050;11.036;2022-12-29T10:18:56;11.40;99.90
5059;DHT22;2548;52.050;11.036;2022-12-29T10:21:33;11.30;99.90
5059;DHT22;2548;52.050;11.036;2022-12-29T10:24:07;11.30;99.90
5059;DHT22;2548;52.050;11.036;2022-12-29T10:26:40;11.20;99.90
5059;DHT22;2548;52.050;11.036;2022-12-29T10:29:14;11.20;99.90
5059;DHT22;2548;52.050;11.036;2022-12-29T10:31:47;11.10;99.90
5059;DHT22;2548;52.050;11.036;2022-12-29T10:34:19;11.00;99.90
5059;DHT22;2548;52.050;11.036;2022-12-29T10:36:49;10.90;99.90
5059;DHT22;2548;52.050;11.036;2022-12-29T10:39:23;10.90;99.90
5059;DHT22;2548;52.050;11.036;2022-12-29T10:42:00;11.00;99.90
5059;DHT22;2548;52.050;11.036;2022-12-29T10:44:31;10.90;99.90
5059;DHT22;2548;52.050;11.036;2022-12-29T10:47:06;10.90;99.90
5059;DHT22;2548;52.050;11.036;2022-12-29T10:49:39;11.00;99.90
5059;DHT22;2548;52.050;11.036;2022-12-29T10:52:08;11.10;99.90
5059;DHT22;2548;52.050;11.036;2022-12-29T10:54:42;11.10;99.90
5059;DHT22;2548;52.050;11.036;2022-12-29T10:57:17;11.20;99.90
5059;DHT22;2548;52.050;11.036;2022-12-29T10:59:47;11.40;99.90
5059;DHT22;2548;52.050;11.036;2022-12-29T11:02:39;11.50;99.90
5059;DHT22;2548;52.050;11.036;2022-12-29T11:05:14;11.50;99.90
5059;DHT22;2548;52.050;11.036;2022-12-29T11:07:47;11.60;99.90
5059;DHT22;2548;52.050;11.036;2022-12-29T11:10:20;11.70;99.90
5059;DHT22;2548;52.050;11.036;2022-12-29T11:12:56;11.80;99.90
5059;DHT22;2548;52.050;11.036;2022-12-29T11:15:24;11.80;99.90
5059;DHT22;2548;52.050;11.036;2022-12-29T11:17:56;11.90;99.90
5059;DHT22;2548;52.050;11.036;2022-12-29T11:20:32;12.00;99.90
5059;DHT22;2548;52.050;11.036;2022-12-29T11:23:01;12.00;99.90
5059;DHT22;2548;52.050;11.036;2022-12-29T11:25:29;12.00;99.90
5059;DHT22;2548;52.050;11.036;2022-12-29T11:27:59;12.00;99.90
5059;DHT22;2548;52.050;11.036;2022-12-29T11:30:28;12.10;99.90
5059;DHT22;2548;52.050;11.036;2022-12-29T11:32:58;12.10;99.90
5059;DHT22;2548;52.050;11.036;2022-12-29T11:35:33;12.00;99.90
5059;DHT22;2548;52.050;11.036;2022-12-29T11:38:01;11.80;99.90
5059;DHT22;2548;52.050;11.036;2022-12-29T11:40:29;11.80;99.90
5059;DHT22;2548;52.050;11.036;2022-12-29T11:42:59;11.80;99.90
5059;DHT22;2548;52.050;11.036;2022-12-29T11:45:30;11.70;99.90
5059;DHT22;2548;52.050;11.036;2022-12-29T11:48:06;11.70;99.90
5059;DHT22;2548;52.050;11.036;2022-12-29T11:50:37;11.70;99.90
5059;DHT22;2548;52.050;11.036;2022-12-29T11:53:13;11.70;99.90
5059;DHT22;2548;52.050;11.036;2022-12-29T11:55:50;11.60;99.90
5059;DHT22;2548;52.050;11.036;2022-12-29T11:58:18;11.60;99.90
5059;DHT22;2548;52.050;11.036;2022-12-29T12:00:47;11.50;99.90
5059;DHT22;2548;52.050;11.036;2022-12-29T12:03:19;11.50;99.90
5059;DHT22;2548;52.050;11.036;2022-12-29T12:05:50;11.50;99.90
5059;DHT22;2548;52.050;11.036;2022-12-29T12:08:25;11.50;99.90
5059;DHT22;2548;52.050;11.036;2022-12-29T12:10:58;11.40;99.90
5059;DHT22;2548;52.050;11.036;2022-12-29T12:13:33;11.40;99.90
5059;DHT22;2548;52.050;11.036;2022-12-29T12:16:06;11.50;99.90
5059;DHT22;2548;52.050;11.036;2022-12-29T12:18:41;11.40;99.90
5059;DHT22;2548;52.050;11.036;2022-12-29T12:21:20;11.40;99.90
5059;DHT22;2548;52.050;11.036;2022-12-29T12:27:02;11.50;99.90
5059;DHT22;2548;52.050;11.036;2022-12-29T12:29:38;11.50;99.90
5059;DHT22;2548;52.050;11.036;2022-12-29T12:32:12;11.50;99.90
5059;DHT22;2548;52.050;11.036;2022-12-29T12:34:44;11.60;99.90
5059;DHT22;2548;52.050;11.036;2022-12-29T12:37:33;11.70;99.90
5059;DHT22;2548;52.050;11.036;2022-12-29T12:40:38;11.80;99.90
5059;DHT22;2548;52.050;11.036;2022-12-29T12:52:22;12.10;99.90
5059;DHT22;2548;52.050;11.036;2022-12-29T12:55:05;12.20;99.90
5059;DHT22;2548;52.050;11.036;2022-12-29T12:57:45;12.20;99.90
5059;DHT22;2548;52.050;11.036;2022-12-29T13:00:18;12.10;99.90
5059;DHT22;2548;52.050;11.036;2022-12-29T13:02:57;12.00;99.90
5059;DHT22;2548;52.050;11.036;2022-12-29T13:05:38;12.00;99.90
5059;DHT22;2548;52.050;11.036;2022-12-29T13:08:30;11.90;99.90
5059;DHT22;2548;52.050;11.036;2022-12-29T13:11:14;11.80;99.90
5059;DHT22;2548;52.050;11.036;2022-12-29T13:13:59;11.70;99.90
5059;DHT22;2548;52.050;11.036;2022-12-29T13:16:33;11.60;99.90
5059;DHT22;2548;52.050;11.036;2022-12-29T13:19:08;11.50;99.90
5059;DHT22;2548;52.050;11.036;2022-12-29T13:21:50;11.40;99.90
5059;DHT22;2548;52.050;11.036;2022-12-29T13:24:27;11.50;99.90
5059;DHT22;2548;52.050;11.036;2022-12-29T13:27:03;11.50;99.90
5059;DHT22;2548;52.050;11.036;2022-12-29T13:29:39;11.60;99.90
5059;DHT22;2548;52.050;11.036;2022-12-29T13:32:21;11.60;99.90
5059;DHT22;2548;52.050;11.036;2022-12-29T13:35:00;11.50;99.90
5059;DHT22;2548;52.050;11.036;2022-12-29T13:37:31;11.60;99.90
5059;DHT22;2548;52.050;11.036;2022-12-29T13:40:13;11.60;99.90
5059;DHT22;2548;52.050;11.036;2022-12-29T13:42:43;11.60;99.90
5059;DHT22;2548;52.050;11.036;2022-12-29T13:45:14;11.50;99.90
5059;DHT22;2548;52.050;11.036;2022-12-29T13:47:47;11.50;99.90
5059;DHT22;2548;52.050;11.036;2022-12-29T13:50:19;11.50;99.90
5059;DHT22;2548;52.050;11.036;2022-12-29T13:52:53;11.40;99.90
5059;DHT22;2548;52.050;11.036;2022-12-29T13:55:28;11.50;99.90
5059;DHT22;2548;52.050;11.036;2022-12-29T13:58:03;11.50;99.90
5059;DHT22;2548;52.050;11.036;2022-12-29T14:00:38;11.60;99.90
5059;DHT22;2548;52.050;11.036;2022-12-29T14:03:20;11.50;99.90
5059;DHT22;2548;52.050;11.036;2022-12-29T14:06:05;11.50;99.90
5059;DHT22;2548;52.050;11.036;2022-12-29T14:08:39;11.50;99.90
5059;DHT22;2548;52.050;11.036;2022-12-29T14:11:10;11.40;99.90
5059;DHT22;2548;52.050;11.036;2022-12-29T14:13:39;11.40;99.90
5059;DHT22;2548;52.050;11.036;2022-12-29T14:16:26;11.30;99.90
5059;DHT22;2548;52.050;11.036;2022-12-29T14:18:55;11.30;99.90
5059;DHT22;2548;52.050;11.036;2022-12-29T14:21:26;11.30;99.90
5059;DHT22;2548;52.050;11.036;2022-12-29T14:24:32;11.30;99.90
5059;DHT22;2548;52.050;11.036;2022-12-29T14:33:14;11.20;99.90
5059;DHT22;2548;52.050;11.036;2022-12-29T14:35:43;11.20;99.90
5059;DHT22;2548;52.050;11.036;2022-12-29T14:41:27;11.10;99.90
5059;DHT22;2548;52.050;11.036;2022-12-29T14:44:01;11.10;99.90
5059;DHT22;2548;52.050;11.036;2022-12-29T14:46:47;11.00;99.90
5059;DHT22;2548;52.050;11.036;2022-12-29T14:49:19;11.10;99.90
5059;DHT22;2548;52.050;11.036;2022-12-29T14:51:48;11.00;99.90
5059;DHT22;2548;52.050;11.036;2022-12-29T14:54:43;11.00;99.90
5059;DHT22;2548;52.050;11.036;2022-12-29T14:57:24;11.00;99.90
5059;DHT22;2548;52.050;11.036;2022-12-29T14:59:54;10.90;99.90
5059;DHT22;2548;52.050;11.036;2022-12-29T15:02:26;10.90;99.90
5059;DHT22;2548;52.050;11.036;2022-12-29T15:05:00;10.90;99.90
5059;DHT22;2548;52.050;11.036;2022-12-29T15:07:29;10.80;99.90
5059;DHT22;2548;52.050;11.036;2022-12-29T15:10:03;10.80;99.90
5059;DHT22;2548;52.050;11.036;2022-12-29T15:12:37;10.80;99.90
5059;DHT22;2548;52.050;11.036;2022-12-29T15:15:19;10.80;99.90
5059;DHT22;2548;52.050;11.036;2022-12-29T15:17:47;10.80;99.90
5059;DHT22;2548;52.050;11.036;2022-12-29T15:20:21;10.80;99.90
5059;DHT22;2548;52.050;11.036;2022-12-29T15:22:52;10.80;99.90
5059;DHT22;2548;52.050;11.036;2022-12-29T15:25:21;10.80;99.90
5059;DHT22;2548;52.050;11.036;2022-12-29T15:27:50;10.70;99.90
5059;DHT22;2548;52.050;11.036;2022-12-29T15:30:19;10.70;99.90
5059;DHT22;2548;52.050;11.036;2022-12-29T15:32:48;10.70;99.90
5059;DHT22;2548;52.050;11.036;2022-12-29T15:35:26;10.60;99.90
5059;DHT22;2548;52.050;11.036;2022-12-29T15:37:54;10.60;99.90
5059;DHT22;2548;52.050;11.036;2022-12-29T15:40:24;10.60;99.90
5059;DHT22;2548;52.050;11.036;2022-12-29T15:43:09;10.50;99.90
5059;DHT22;2548;52.050;11.036;2022-12-29T15:45:40;10.50;99.90
5059;DHT22;2548;52.050;11.036;2022-12-29T15:48:15;10.50;99.90
5059;DHT22;2548;52.050;11.036;2022-12-29T15:50:46;10.50;99.90
5059;DHT22;2548;52.050;11.036;2022-12-29T15:53:19;10.60;99.90
5059;DHT22;2548;52.050;11.036;2022-12-29T15:55:51;10.50;99.90
5059;DHT22;2548;52.050;11.036;2022-12-29T15:58:20;10.50;99.90
5059;DHT22;2548;52.050;11.036;2022-12-29T16:00:50;10.50;99.90
5059;DHT22;2548;52.050;11.036;2022-12-29T16:03:19;10.40;99.90
5059;DHT22;2548;52.050;11.036;2022-12-29T16:05:52;10.30;99.90
5059;DHT22;2548;52.050;11.036;2022-12-29T16:08:31;10.30;99.90
5059;DHT22;2548;52.050;11.036;2022-12-29T16:11:01;10.20;99.90
5059;DHT22;2548;52.050;11.036;2022-12-29T16:13:32;10.20;99.90
5059;DHT22;2548;52.050;11.036;2022-12-29T16:16:02;10.20;99.90
5059;DHT22;2548;52.050;11.036;2022-12-29T16:18:33;10.20;99.90
5059;DHT22;2548;52.050;11.036;2022-12-29T16:21:05;10.10;99.90
5059;DHT22;2548;52.050;11.036;2022-12-29T16:23:39;10.10;99.90
5059;DHT22;2548;52.050;11.036;2022-12-29T16:26:14;10.10;99.90
5059;DHT22;2548;52.050;11.036;2022-12-29T16:28:43;10.10;99.90
5059;DHT22;2548;52.050;11.036;2022-12-29T16:31:18;10.00;99.90
5059;DHT22;2548;52.050;11.036;2022-12-29T16:33:48;10.00;99.90
5059;DHT22;2548;52.050;11.036;2022-12-29T16:36:26;9.90;99.90
5059;DHT22;2548;52.050;11.036;2022-12-29T16:39:11;9.90;99.90
5059;DHT22;2548;52.050;11.036;2022-12-29T16:41:47;9.80;99.90
5059;DHT22;2548;52.050;11.036;2022-12-29T16:44:18;9.70;99.90
5059;DHT22;2548;52.050;11.036;2022-12-29T16:47:05;9.70;99.90
5059;DHT22;2548;52.050;11.036;2022-12-29T16:49:51;9.60;99.90
5059;DHT22;2548;52.050;11.036;2022-12-29T16:52:32;9.60;99.90
5059;DHT22;2548;52.050;11.036;2022-12-29T16:55:00;9.60;99.90